Snow/Ice From: 16-12-2017 16:00 Until: 17-12-2017 16:00 warning for: Snow/Ice Level: Yellow info button

Although rather usual in this region, locally or potentially dangerous phenomena are expected. (such as local winds, summer thunderstorms, rising streams or high waves) Be aware and pay attention to the latest weather updates, especially if you carry out activities exposed to weather or close to a stream or shoreline. 


Meteo18 Weather Cam more information Meteo18 Weather Cam


Thunder radar more information blitzortung!


warning for Snow/Ice more information rain snow radar


Visit our other weather sites:

Template documentation
and downloads

And another site



Weather Underground History page Text

Daily Summary for October 5, 2017 Units:  English    Metric   Both
« Previous Day
Next Day »
Daily Weekly Monthly Yearly Custom
  High: Low: Average:
Temperature: 67.1 °F 40.3 °F 54 °F
Dew Point: 55.4 °F 39.2 °F 48.7 °F
Humidity: 98 % 54 % 85 %
Wind Speed: 16 mph 0 mph 3.5 mph
Wind Gust: 18 mph - -
Wind:- - West
Pressure: 30.3 in 30.1 in -
Precipitation: 0.02 in    
Historical Graphs
 
 
Tabular Data for October 5, 2017
Time Temperature Dew Point Pressure Wind Wind Speed Wind Gust Humidity Rainfall Rate (Hourly)
00:02 47.7 °F 46 °F 30.3 in Calm   1 mph 94 % 0 in
00:07 47.8 °F 46.2 °F 30.3 in Calm   1 mph 94 % 0 in
00:12 47.8 °F 46.2 °F 30.3 in Calm   1 mph 94 % 0 in
00:17 47.7 °F 46 °F 30.3 in Calm   1 mph 94 % 0 in
00:22 47.7 °F 46 °F 30.3 in Calm   1 mph 94 % 0 in
00:32 47.7 °F 46 °F 30.3 in Calm   1 mph 94 % 0 in
00:42 47.5 °F 45.9 °F 30.3 in Calm     94 % 0 in
00:47 47.5 °F 45.9 °F 30.3 in Calm     94 % 0 in
00:52 47.7 °F 46 °F 30.3 in Calm     94 % 0 in
00:57 47.5 °F 45.9 °F 30.3 in Calm     94 % 0 in
01:07 47.1 °F 45.1 °F 30.3 in Calm     93 % 0 in
01:12 46.9 °F 45 °F 30.3 in Calm     93 % 0 in
01:22 46.8 °F 45.1 °F 30.3 in Calm     94 % 0 in
01:27 46.6 °F 45 °F 30.3 in Calm     94 % 0 in
01:32 46.2 °F 44.6 °F 30.3 in Calm     94 % 0 in
01:37 46.2 °F 44.6 °F 30.3 in Calm     94 % 0 in
01:42 46.6 °F 45.1 °F 30.3 in Calm     95 % 0 in
01:52 46.9 °F 45.5 °F 30.3 in Calm     95 % 0 in
01:57 46.6 °F 45 °F 30.3 in Calm     94 % 0 in
02:02 46.2 °F 44.6 °F 30.3 in Calm     94 % 0 in
02:07 46.2 °F 44.8 °F 30.3 in Calm     95 % 0 in
02:12 46 °F 44.4 °F 30.3 in Calm     94 % 0 in
02:17 45.7 °F 44.1 °F 30.3 in Calm     94 % 0 in
02:22 45.7 °F 44.4 °F 30.3 in Calm     95 % 0 in
02:32 45.7 °F 44.4 °F 30.3 in Calm     95 % 0 in
02:37 45.3 °F 44.1 °F 30.3 in Calm     95 % 0 in
02:42 45 °F 43.7 °F 30.3 in Calm     95 % 0 in
02:47 44.8 °F 43.5 °F 30.3 in Calm     95 % 0 in
02:52 44.6 °F 43.3 °F 30.3 in Calm     95 % 0 in
02:57 44.8 °F 43.7 °F 30.3 in Calm     96 % 0 in
03:02 44.6 °F 43.3 °F 30.3 in Calm     95 % 0 in
03:07 44.4 °F 43.3 °F 30.3 in Calm     96 % 0 in
03:12 44.4 °F 43.3 °F 30.3 in Calm     96 % 0 in
03:17 44.4 °F 43.2 °F 30.3 in Calm     95 % 0 in
03:22 44.1 °F 42.8 °F 30.3 in Calm     95 % 0 in
03:27 43.9 °F 42.6 °F 30.3 in Calm     95 % 0 in
03:32 43.9 °F 42.8 °F 30.3 in Calm     96 % 0.01 in
03:37 43.7 °F 42.6 °F 30.3 in Calm     96 % 0.01 in
03:42 43.7 °F 42.6 °F 30.3 in Calm     96 % 0.01 in
03:47 43.7 °F 42.6 °F 30.3 in Calm     96 % 0.01 in
03:52 43.9 °F 42.8 °F 30.2 in Calm     96 % 0.01 in
03:57 43.9 °F 42.8 °F 30.2 in Calm     96 % 0.01 in
04:02 44.4 °F 43.7 °F 30.2 in Calm     97 % 0.01 in
04:07 44.1 °F 43 °F 30.2 in Calm     96 % 0.01 in
04:12 44.1 °F 43 °F 30.2 in Calm     96 % 0.01 in
04:17 44.1 °F 43 °F 30.2 in Calm     96 % 0.01 in
04:22 44.1 °F 43 °F 30.2 in Calm     96 % 0.01 in
04:32 43.5 °F 42.4 °F 30.2 in Calm     96 % 0 in
04:37 43.5 °F 42.4 °F 30.2 in Calm     96 % 0 in
04:42 43 °F 41.7 °F 30.2 in Calm     95 % 0 in
04:47 42.6 °F 41.4 °F 30.2 in Calm     95 % 0 in
04:52 42.4 °F 41.4 °F 30.2 in Calm     96 % 0 in
05:02 42.6 °F 41.5 °F 30.2 in Calm     96 % 0 in
05:22 43.9 °F 43.2 °F 30.2 in Calm     97 % 0 in
05:27 43.9 °F 43.2 °F 30.2 in Calm     97 % 0 in
05:32 44.4 °F 43.7 °F 30.2 in Calm     97 % 0 in
05:37 44.2 °F 43.5 °F 30.2 in Calm     97 % 0 in
05:42 44.2 °F 43.5 °F 30.2 in Calm     97 % 0 in
05:47 44.4 °F 43.7 °F 30.2 in Calm     97 % 0 in
05:52 44.2 °F 43.5 °F 30.2 in Calm     97 % 0 in
05:57 43.7 °F 42.6 °F 30.2 in Calm     96 % 0 in
06:02 43.5 °F 42.4 °F 30.2 in Calm     96 % 0 in
06:12 43.2 °F 42.1 °F 30.2 in Calm     96 % 0 in
06:17 43 °F 42.3 °F 30.2 in Calm     97 % 0 in
06:22 43 °F 42.3 °F 30.2 in Calm     97 % 0 in
06:32 42.3 °F 41.2 °F 30.2 in Calm     96 % 0 in
06:42 41.5 °F 40.5 °F 30.2 in Calm     96 % 0 in
06:52 41.4 °F 40.3 °F 30.2 in Calm     96 % 0 in
07:02 40.8 °F 39.7 °F 30.2 in Calm     96 % 0 in
07:07 40.5 °F 39.4 °F 30.2 in Calm     96 % 0 in
07:12 40.3 °F 39.2 °F 30.2 in Calm     96 % 0 in
07:17 40.5 °F 39.7 °F 30.2 in Calm     97 % 0 in
07:22 40.3 °F 39.6 °F 30.2 in Calm     97 % 0 in
07:32 40.5 °F 39.7 °F 30.2 in Calm     97 % 0 in
07:37 40.6 °F 39.9 °F 30.2 in Calm     97 % 0 in
07:42 40.5 °F 39.7 °F 30.2 in Calm     97 % 0 in
07:52 40.5 °F 39.7 °F 30.2 in Calm     97 % 0 in
07:57 40.3 °F 39.6 °F 30.2 in Calm   1 mph 97 % 0 in
08:02 40.3 °F 39.6 °F 30.2 in Calm   1 mph 97 % 0 in
08:12 41.4 °F 40.6 °F 30.2 in South 1 mph 2 mph 97 % 0 in
08:17 42.4 °F 41.7 °F 30.2 in SW 2 mph 3 mph 97 % 0 in
08:22 43.3 °F 42.6 °F 30.2 in SW 1 mph 4 mph 97 % 0 in
08:32 44.2 °F 43.7 °F 30.2 in SW 1 mph 5 mph 98 % 0 in
08:42 44.1 °F 43.3 °F 30.2 in Calm   5 mph 97 % 0 in
08:47 43.2 °F 42.4 °F 30.2 in Calm   4 mph 97 % 0 in
08:52 43 °F 42.3 °F 30.2 in Calm   1 mph 97 % 0 in
08:57 42.4 °F 41.7 °F 30.2 in Calm   1 mph 97 % 0 in
09:02 42.8 °F 42.1 °F 30.2 in Calm   1 mph 97 % 0 in
09:12 43.9 °F 43.2 °F 30.2 in Calm   1 mph 97 % 0 in
09:17 44.4 °F 43.7 °F 30.2 in South 2 mph 2 mph 97 % 0 in
09:22 45 °F 44.2 °F 30.2 in SSE 2 mph 3 mph 97 % 0 in
09:32 45.7 °F 45.1 °F 30.2 in SSW 2 mph 4 mph 98 % 0 in
09:42 46.2 °F 45.7 °F 30.2 in South 2 mph 6 mph 98 % 0 in
09:47 46.6 °F 46 °F 30.2 in SSE 3 mph 6 mph 98 % 0 in
09:52 47.1 °F 46.6 °F 30.2 in SSW 2 mph 6 mph 98 % 0 in
09:57 47.8 °F 47.3 °F 30.2 in South 1 mph 5 mph 98 % 0 in
10:02 48.7 °F 48.2 °F 30.2 in SSE 1 mph 5 mph 98 % 0 in
10:07 49.3 °F 48.7 °F 30.2 in WSW 1 mph 5 mph 98 % 0 in
10:17 49.8 °F 48.9 °F 30.2 in SSW 4 mph 5 mph 97 % 0 in
10:22 50.2 °F 49.3 °F 30.2 in South 3 mph 6 mph 97 % 0 in
10:32 50.7 °F 49.8 °F 30.2 in SW 3 mph 6 mph 97 % 0 in
10:37 51.1 °F 50.2 °F 30.2 in SW 4 mph 6 mph 97 % 0 in
10:42 51.1 °F 50 °F 30.2 in SW 2 mph 6 mph 96 % 0 in
10:47 51.4 °F 50.5 °F 30.2 in West 2 mph 6 mph 97 % 0.01 in
10:52 52 °F 51.1 °F 30.2 in SW 6 mph 6 mph 97 % 0.01 in
10:57 52.2 °F 50.7 °F 30.2 in WSW 3 mph 8 mph 95 % 0.01 in
11:02 52.2 °F 50.5 °F 30.2 in SW 4 mph 8 mph 94 % 0.01 in
11:17 53.2 °F 50.9 °F 30.2 in SW 2 mph 10 mph 92 % 0.01 in
11:22 53.4 °F 50.5 °F 30.2 in SSE 5 mph 12 mph 90 % 0.01 in
11:27 53.8 °F 50.9 °F 30.2 in WSW 6 mph 12 mph 90 % 0.01 in
11:32 54.1 °F 50.9 °F 30.2 in WSW 4 mph 12 mph 89 % 0.01 in
11:42 54.7 °F 51.3 °F 30.2 in SW 8 mph 9 mph 88 % 0 in
11:47 54.7 °F 50.9 °F 30.2 in SW 5 mph 9 mph 87 % 0 in
11:52 55.2 °F 51.4 °F 30.2 in SW 5 mph 9 mph 87 % 0 in
12:02 55.9 °F 51.8 °F 30.2 in SW 7 mph 9 mph 86 % 0 in
12:12 57 °F 51.6 °F 30.2 in SW 6 mph 12 mph 82 % 0 in
12:17 57.4 °F 52.5 °F 30.2 in WSW 7 mph 12 mph 84 % 0 in
12:27 57.7 °F 52 °F 30.2 in SW 5 mph 13 mph 81 % 0 in
12:32 58.6 °F 53.2 °F 30.2 in SW 10 mph 13 mph 82 % 0 in
12:42 59.5 °F 52.3 °F 30.2 in WSW 9 mph 15 mph 77 % 0 in
12:47 59.5 °F 52 °F 30.2 in SW 7 mph 15 mph 76 % 0 in
12:52 60.1 °F 52.5 °F 30.2 in SW 4 mph 13 mph 76 % 0 in
13:02 60.8 °F 52.2 °F 30.2 in West 6 mph 13 mph 73 % 0 in
13:07 61.2 °F 51.6 °F 30.2 in WSW 8 mph 12 mph 71 % 0 in
13:12 61.5 °F 52.3 °F 30.2 in WNW 9 mph 15 mph 72 % 0 in
13:17 61.9 °F 52.3 °F 30.2 in WSW 13 mph 15 mph 71 % 0 in
13:22 61.9 °F 51.6 °F 30.2 in WSW 4 mph 14 mph 69 % 0 in
13:27 62.2 °F 52 °F 30.2 in WSW 3 mph 14 mph 69 % 0 in
13:32 62.4 °F 51.3 °F 30.2 in SW 1 mph 14 mph 67 % 0 in
13:37 62.8 °F 51.3 °F 30.2 in WSW 4 mph 14 mph 66 % 0 in
13:42 63.3 °F 52.2 °F 30.2 in SW 10 mph 13 mph 67 % 0 in
13:47 63.5 °F 52 °F 30.2 in SSW 7 mph 13 mph 66 % 0 in
13:52 64 °F 52 °F 30.2 in SW 2 mph 13 mph 65 % 0 in
13:57 64.2 °F 50 °F 30.2 in WSW 7 mph 13 mph 60 % 0 in
14:02 64 °F 50.4 °F 30.2 in West 8 mph 11 mph 61 % 0 in
14:07 64 °F 49.8 °F 30.2 in SW 6 mph 14 mph 60 % 0 in
14:12 64.4 °F 50.7 °F 30.2 in WSW 8 mph 14 mph 61 % 0 in
14:17 64.8 °F 50.5 °F 30.2 in West 5 mph 14 mph 60 % 0 in
14:22 64.6 °F 49.5 °F 30.2 in West 10 mph 12 mph 58 % 0 in
14:27 64.2 °F 49.1 °F 30.2 in WSW 7 mph 14 mph 58 % 0 in
14:32 64.8 °F 50.5 °F 30.2 in WSW 9 mph 14 mph 60 % 0 in
14:37 64.9 °F 49.8 °F 30.2 in SW 5 mph 14 mph 58 % 0 in
14:42 64.9 °F 49.3 °F 30.2 in WSW 6 mph 11 mph 57 % 0 in
14:47 64.9 °F 49.3 °F 30.2 in WNW 4 mph 14 mph 57 % 0 in
14:52 65.1 °F 50 °F 30.2 in WSW 3 mph 14 mph 58 % 0 in
14:57 65.5 °F 50.4 °F 30.2 in West 8 mph 12 mph 58 % 0 in
15:02 65.7 °F 50 °F 30.2 in WSW 10 mph 11 mph 57 % 0 in
15:07 65.8 °F 51.1 °F 30.2 in SSW 4 mph 12 mph 59 % 0 in
15:12 65.8 °F 50.2 °F 30.2 in SSW 7 mph 13 mph 57 % 0 in
15:22 66 °F 48.9 °F 30.2 in WNW 3 mph 13 mph 54 % 0 in
15:32 66.6 °F 49.5 °F 30.2 in WNW 5 mph 11 mph 54 % 0 in
15:37 66.6 °F 49.8 °F 30.2 in WNW 7 mph 13 mph 55 % 0 in
15:42 66.6 °F 49.8 °F 30.2 in NW 6 mph 13 mph 55 % 0 in
15:47 66.9 °F 51.6 °F 30.2 in WSW 9 mph 13 mph 58 % 0 in
15:52 67.1 °F 50.9 °F 30.2 in West 5 mph 13 mph 56 % 0 in
15:57 66.9 °F 50.2 °F 30.2 in WSW 7 mph 11 mph 55 % 0 in
16:02 67.1 °F 50.4 °F 30.2 in WNW 6 mph 13 mph 55 % 0 in
16:12 66.7 °F 50.5 °F 30.2 in WNW 6 mph 16 mph 56 % 0 in
16:17 66.6 °F 50.9 °F 30.2 in West 7 mph 16 mph 57 % 0 in
16:27 66.4 °F 52.2 °F 30.2 in SW 9 mph 12 mph 60 % 0 in
16:32 66.6 °F 51.3 °F 30.2 in WSW 7 mph 13 mph 58 % 0 in
16:37 66.7 °F 52 °F 30.1 in West 8 mph 13 mph 59 % 0 in
16:42 66.7 °F 51.4 °F 30.1 in West 4 mph 13 mph 58 % 0 in
16:47 66.4 °F 51.6 °F 30.2 in WSW 8 mph 12 mph 59 % 0 in
16:52 66.2 °F 52 °F 30.2 in WSW 10 mph 12 mph 60 % 0 in
16:57 65.8 °F 51.6 °F 30.1 in WSW 4 mph 13 mph 60 % 0 in
17:02 65.7 °F 51.8 °F 30.1 in West 9 mph 13 mph 61 % 0 in
17:07 65.7 °F 51.8 °F 30.1 in WSW 7 mph 12 mph 61 % 0 in
17:12 65.7 °F 52.3 °F 30.1 in WSW 5 mph 12 mph 62 % 0 in
17:17 66 °F 52.7 °F 30.1 in West 7 mph 12 mph 62 % 0 in
17:32 65.8 °F 52.5 °F 30.1 in West 5 mph 14 mph 62 % 0 in
17:37 65.7 °F 52.3 °F 30.1 in NW 7 mph 14 mph 62 % 0 in
17:42 65.5 °F 52.5 °F 30.2 in West 3 mph 13 mph 63 % 0 in
17:47 65.5 °F 52.5 °F 30.2 in WNW 8 mph 13 mph 63 % 0 in
17:52 65.3 °F 52.3 °F 30.1 in WSW 8 mph 12 mph 63 % 0 in
17:57 65.1 °F 52.7 °F 30.1 in WNW 16 mph 16 mph 64 % 0 in
18:02 64.9 °F 52.5 °F 30.1 in West 6 mph 17 mph 64 % 0 in
18:07 64.8 °F 52.7 °F 30.1 in West 9 mph 17 mph 65 % 0 in
18:12 64.6 °F 52.9 °F 30.1 in West 7 mph 17 mph 66 % 0 in
18:17 64.6 °F 52.9 °F 30.1 in WSW 7 mph 15 mph 66 % 0 in
18:22 64.2 °F 53.1 °F 30.1 in West 5 mph 15 mph 67 % 0 in
18:32 63.9 °F 53.4 °F 30.1 in WNW 5 mph 12 mph 69 % 0 in
18:42 63.5 °F 54 °F 30.1 in West 7 mph 12 mph 71 % 0 in
18:47 63.3 °F 54.1 °F 30.1 in West 6 mph 15 mph 72 % 0 in
18:52 63.3 °F 54.1 °F 30.1 in WSW 4 mph 15 mph 72 % 0 in
19:02 63 °F 54.1 °F 30.1 in SW 6 mph 9 mph 73 % 0 in
19:07 62.8 °F 54.3 °F 30.1 in West 4 mph 9 mph 74 % 0 in
19:12 62.8 °F 54.3 °F 30.2 in WNW 3 mph 9 mph 74 % 0 in
19:17 62.6 °F 54.5 °F 30.2 in WNW 3 mph 9 mph 75 % 0 in
19:22 62.4 °F 54.7 °F 30.2 in West 3 mph 9 mph 76 % 0 in
19:27 62.2 °F 54.5 °F 30.2 in West 9 mph 10 mph 76 % 0 in
19:32 62.1 °F 54.7 °F 30.2 in WNW 9 mph 12 mph 77 % 0 in
19:37 61.9 °F 55.2 °F 30.2 in WNW 4 mph 14 mph 79 % 0 in
19:42 61.3 °F 55 °F 30.2 in WSW 3 mph 14 mph 80 % 0 in
19:47 61 °F 55.4 °F 30.2 in West 5 mph 15 mph 82 % 0 in
19:52 60.6 °F 55 °F 30.2 in NW 9 mph 15 mph 82 % 0 in
19:57 60.3 °F 55 °F 30.2 in NW 8 mph 18 mph 83 % 0 in
20:02 59.7 °F 55.2 °F 30.2 in West 10 mph 18 mph 85 % 0 in
20:07 59.4 °F 55.2 °F 30.2 in WNW 7 mph 16 mph 86 % 0 in
20:12 58.8 °F 55 °F 30.2 in WNW 5 mph 17 mph 87 % 0 in
20:22 58.5 °F 55.2 °F 30.2 in West 2 mph 14 mph 89 % 0 in
20:27 58.3 °F 54.7 °F 30.2 in WSW 8 mph 12 mph 88 % 0 in
20:32 58.3 °F 54.7 °F 30.2 in WNW 9 mph 13 mph 88 % 0 in
20:37 58.3 °F 54.7 °F 30.2 in WNW 5 mph 13 mph 88 % 0 in
20:42 57.9 °F 54.7 °F 30.2 in WNW 4 mph 13 mph 89 % 0 in
20:47 57.7 °F 54.5 °F 30.2 in WNW 8 mph 13 mph 89 % 0 in
20:52 57.6 °F 54.3 °F 30.2 in WNW 6 mph 11 mph 89 % 0 in
20:57 57.6 °F 54.3 °F 30.2 in West 7 mph 11 mph 89 % 0 in
21:12 57.4 °F 54.5 °F 30.2 in North 9 mph 9 mph 90 % 0 in
21:17 57.4 °F 54.5 °F 30.2 in NW 7 mph 13 mph 90 % 0 in
21:22 57.2 °F 54.7 °F 30.2 in NW 8 mph 13 mph 91 % 0 in
21:27 57.2 °F 54.7 °F 30.2 in WNW 3 mph 13 mph 91 % 0 in
21:32 57 °F 54.7 °F 30.2 in WNW 3 mph 12 mph 92 % 0 in
21:42 56.8 °F 54.5 °F 30.2 in WSW 5 mph 9 mph 92 % 0 in
21:47 56.8 °F 54.5 °F 30.2 in Calm   9 mph 92 % 0 in
21:52 56.8 °F 54.5 °F 30.2 in WNW 2 mph 9 mph 92 % 0 in
21:57 56.8 °F 54.5 °F 30.2 in NNW 4 mph 9 mph 92 % 0 in
22:02 56.7 °F 54.7 °F 30.2 in NNW 5 mph 11 mph 93 % 0 in
22:12 56.7 °F 54.7 °F 30.2 in NNW 2 mph 12 mph 93 % 0 in
22:17 56.7 °F 54.7 °F 30.2 in WSW 6 mph 12 mph 93 % 0 in
22:22 56.5 °F 54.5 °F 30.2 in WNW 4 mph 10 mph 93 % 0 in
22:27 56.5 °F 54.5 °F 30.2 in NNW 5 mph 11 mph 93 % 0 in
22:32 56.5 °F 54.9 °F 30.2 in West 3 mph 11 mph 94 % 0 in
22:37 56.5 °F 54.9 °F 30.2 in West 6 mph 11 mph 94 % 0 in
22:42 56.5 °F 54.9 °F 30.2 in WNW 9 mph 10 mph 94 % 0 in
22:47 56.5 °F 54.9 °F 30.2 in NW 5 mph 10 mph 94 % 0 in
22:52 56.5 °F 54.9 °F 30.2 in WSW 2 mph 10 mph 94 % 0 in
22:57 56.5 °F 54.9 °F 30.2 in NW 2 mph 10 mph 94 % 0 in
23:02 56.5 °F 54.9 °F 30.2 in WNW 5 mph 8 mph 94 % 0 in
23:07 56.5 °F 54.9 °F 30.2 in West 3 mph 8 mph 94 % 0 in
23:12 56.3 °F 54.7 °F 30.2 in WNW 4 mph 9 mph 94 % 0 in
23:17 56.5 °F 54.9 °F 30.2 in WSW 5 mph 9 mph 94 % 0 in
23:22 56.3 °F 54.7 °F 30.2 in NW 8 mph 9 mph 94 % 0 in
23:27 56.3 °F 54.7 °F 30.2 in WNW 3 mph 9 mph 94 % 0 in
23:37 56.3 °F 54.7 °F 30.2 in NW 3 mph 8 mph 94 % 0 in
23:42 56.3 °F 54.7 °F 30.2 in SW 1 mph 7 mph 94 % 0 in
23:47 56.5 °F 54.9 °F 30.2 in WNW 5 mph 10 mph 94 % 0 in
23:52 56.3 °F 54.7 °F 30.2 in NW 3 mph 10 mph 94 % 0 in
23:57 56.3 °F 54.7 °F 30.2 in NW 3 mph 10 mph 94 % 0 in
Meteo18
Compliments of Weather Underground - 4 mb

Script developed by  Jim McMurry - jmcmurry@mwt.net Adapted for the template by  Wim van der Kuil - Leuven-Template.eu

You find our weather info also at:

European Weather Network

Weather Underground

Equipment we use:

Weather-station
Davis Vue

Weather-program
Meteohub

Weather-server
Raspberry PI 2 B+

Provider
1 and 1

Davis Vue

Meteohub

Raspberry PI 2 B+

1 and 1